createdAt,value
2023-01-29T00:02:04.773Z,-1.46
2023-01-29T00:04:33.118Z,-1.42
2023-01-29T00:07:01.703Z,-1.40
2023-01-29T00:09:31.830Z,-1.38
2023-01-29T00:12:00.311Z,-1.37
2023-01-29T00:14:28.764Z,-1.35
2023-01-29T00:16:57.514Z,-1.34
2023-01-29T00:19:25.934Z,-1.32
2023-01-29T00:21:54.215Z,-1.30
2023-01-29T00:24:25.186Z,-1.28
2023-01-29T00:26:55.007Z,-1.27
2023-01-29T00:29:24.107Z,-1.25
2023-01-29T00:31:52.923Z,-1.24
2023-01-29T00:34:23.111Z,-1.21
2023-01-29T00:36:51.771Z,-1.19
2023-01-29T00:39:31.489Z,-1.17
2023-01-29T00:42:26.141Z,-1.14
2023-01-29T00:45:03.200Z,-1.11
2023-01-29T00:47:35.143Z,-1.08
2023-01-29T00:50:06.852Z,-1.05
2023-01-29T00:52:36.903Z,-1.03
2023-01-29T00:55:06.236Z,-1.00
2023-01-29T00:57:36.495Z,-0.97
2023-01-29T01:00:07.273Z,-0.95
2023-01-29T01:02:54.199Z,-0.93
2023-01-29T01:05:23.826Z,-0.90
2023-01-29T01:07:55.899Z,-0.88
2023-01-29T01:10:31.014Z,-0.86
2023-01-29T01:13:05.851Z,-0.84
2023-01-29T01:15:40.581Z,-0.81
2023-01-29T01:18:08.893Z,-0.80
2023-01-29T01:20:37.454Z,-0.79
2023-01-29T01:23:05.875Z,-0.77
2023-01-29T01:25:34.191Z,-0.75
2023-01-29T01:28:02.707Z,-0.74
2023-01-29T01:30:31.063Z,-0.73
2023-01-29T01:33:00.856Z,-0.72
2023-01-29T01:35:29.732Z,-0.71
2023-01-29T01:37:57.965Z,-0.71
2023-01-29T01:40:26.349Z,-0.70
2023-01-29T01:42:59.024Z,-0.70
2023-01-29T01:45:33.438Z,-0.69
2023-01-29T01:48:07.801Z,-0.68
2023-01-29T01:50:48.924Z,-0.67
2023-01-29T01:53:23.408Z,-0.67
2023-01-29T01:55:57.733Z,-0.67
2023-01-29T01:58:37.376Z,-0.67
2023-01-29T02:01:08.015Z,-0.67
2023-01-29T02:04:02.925Z,-0.67
2023-01-29T02:06:51.175Z,-0.67
2023-01-29T02:09:36.591Z,-0.69
2023-01-29T02:12:12.701Z,-0.69
2023-01-29T02:14:42.810Z,-0.70
2023-01-29T02:17:17.152Z,-0.71
2023-01-29T02:19:58.364Z,-0.71
2023-01-29T02:22:55.495Z,-0.72
2023-01-29T02:25:51.008Z,-0.72
2023-01-29T02:28:56.410Z,-0.73
2023-01-29T02:31:41.759Z,-0.74
2023-01-29T02:34:28.817Z,-0.75
2023-01-29T02:37:06.939Z,-0.77
2023-01-29T02:39:44.100Z,-0.77
2023-01-29T02:42:38.969Z,-0.77
2023-01-29T02:45:16.022Z,-0.79
2023-01-29T02:48:00.917Z,-0.81
2023-01-29T02:51:05.321Z,-0.82
2023-01-29T02:54:04.551Z,-0.83
2023-01-29T02:56:46.674Z,-0.85
2023-01-29T02:59:21.046Z,-0.87
2023-01-29T03:01:55.946Z,-0.89
2023-01-29T03:04:33.407Z,-0.91
2023-01-29T03:07:10.777Z,-0.93
2023-01-29T03:09:49.271Z,-0.95
2023-01-29T03:12:35.167Z,-0.96
2023-01-29T03:15:12.905Z,-0.97
2023-01-29T03:17:52.663Z,-0.97
2023-01-29T03:20:26.705Z,-0.98
2023-01-29T03:23:02.837Z,-0.98
2023-01-29T03:25:54.147Z,-0.98
2023-01-29T03:28:42.989Z,-0.98
2023-01-29T03:31:32.483Z,-0.98
2023-01-29T03:34:10.080Z,-1.00
2023-01-29T03:36:49.531Z,-0.98
2023-01-29T03:39:18.272Z,-0.99
2023-01-29T03:42:05.093Z,-0.99
2023-01-29T03:44:49.002Z,-0.99
2023-01-29T03:47:37.294Z,-1.00
2023-01-29T03:50:36.221Z,-1.00
2023-01-29T03:53:23.484Z,-1.01
2023-01-29T03:56:16.139Z,-1.01
2023-01-29T03:59:02.575Z,-1.01
2023-01-29T04:01:55.102Z,-1.02
2023-01-29T04:04:37.964Z,-1.02
2023-01-29T04:07:12.550Z,-1.04
2023-01-29T04:09:49.637Z,-1.04
2023-01-29T04:12:27.216Z,-1.07
2023-01-29T04:14:59.747Z,-1.05
2023-01-29T04:17:34.836Z,-1.04
2023-01-29T04:20:27.389Z,-1.06
2023-01-29T04:22:56.197Z,-1.06
2023-01-29T04:25:29.199Z,-1.07
2023-01-29T04:28:08.881Z,-1.09
2023-01-29T04:30:48.209Z,-1.10
2023-01-29T04:33:35.556Z,-1.10
2023-01-29T04:36:37.440Z,-1.10
2023-01-29T04:39:24.484Z,-1.11
2023-01-29T04:42:14.054Z,-1.13
2023-01-29T04:44:51.754Z,-1.11
2023-01-29T04:47:35.764Z,-1.11
2023-01-29T04:50:09.973Z,-1.11
2023-01-29T04:52:38.066Z,-1.12
2023-01-29T04:55:36.309Z,-1.12
2023-01-29T04:58:29.699Z,-1.13
2023-01-29T05:01:01.349Z,-1.16
2023-01-29T05:03:32.735Z,-1.17
2023-01-29T05:06:02.807Z,-1.18
2023-01-29T05:08:33.252Z,-1.19
2023-01-29T05:11:01.558Z,-1.19
2023-01-29T05:13:32.057Z,-1.19
2023-01-29T05:16:14.836Z,-1.20
2023-01-29T05:18:45.650Z,-1.21
2023-01-29T05:21:13.946Z,-1.22
2023-01-29T05:23:53.429Z,-1.23
2023-01-29T05:26:41.387Z,-1.24
2023-01-29T05:29:09.672Z,-1.26
2023-01-29T05:31:37.972Z,-1.29
2023-01-29T05:34:07.078Z,-1.32
2023-01-29T05:36:35.467Z,-1.33
2023-01-29T05:39:04.332Z,-1.33
2023-01-29T05:41:32.713Z,-1.34
2023-01-29T05:44:01.027Z,-1.34
2023-01-29T05:46:29.371Z,-1.35
2023-01-29T05:48:57.549Z,-1.37
2023-01-29T05:51:25.941Z,-1.38
2023-01-29T05:53:54.263Z,-1.40
2023-01-29T05:56:22.718Z,-1.41
2023-01-29T05:58:50.969Z,-1.42
2023-01-29T06:01:21.864Z,-1.43
2023-01-29T06:03:50.077Z,-1.44
2023-01-29T06:06:18.556Z,-1.45
2023-01-29T06:08:47.793Z,-1.46
2023-01-29T06:11:18.400Z,-1.47
2023-01-29T06:13:46.777Z,-1.48
2023-01-29T06:16:16.176Z,-1.48
2023-01-29T06:18:44.518Z,-1.49
2023-01-29T06:21:14.456Z,-1.51
2023-01-29T06:23:42.770Z,-1.53
2023-01-29T06:26:13.662Z,-1.53
2023-01-29T06:28:42.451Z,-1.53
2023-01-29T06:31:30.422Z,-1.53
2023-01-29T06:34:00.245Z,-1.54
2023-01-29T06:36:28.837Z,-1.54
2023-01-29T06:38:57.102Z,-1.54
2023-01-29T06:41:25.795Z,-1.54
2023-01-29T06:43:54.408Z,-1.53
2023-01-29T06:46:22.748Z,-1.53
2023-01-29T06:48:51.987Z,-1.52
2023-01-29T06:51:21.438Z,-1.52
2023-01-29T06:53:49.823Z,-1.53
2023-01-29T06:56:18.862Z,-1.54
2023-01-29T06:58:47.341Z,-1.55
2023-01-29T07:01:33.439Z,-1.55
2023-01-29T07:04:04.506Z,-1.56
2023-01-29T07:06:33.577Z,-1.58
2023-01-29T07:09:03.135Z,-1.59
2023-01-29T07:11:32.250Z,-1.59
2023-01-29T07:14:00.553Z,-1.59
2023-01-29T07:16:28.808Z,-1.58
2023-01-29T07:18:57.174Z,-1.59
2023-01-29T07:21:25.645Z,-1.58
2023-01-29T07:23:53.990Z,-1.58
2023-01-29T07:26:22.435Z,-1.56
2023-01-29T07:28:50.841Z,-1.55
2023-01-29T07:31:23.011Z,-1.54
2023-01-29T07:33:51.555Z,-1.52
2023-01-29T07:36:19.984Z,-1.50
2023-01-29T07:38:51.818Z,-1.49
2023-01-29T07:41:20.168Z,-1.47
2023-01-29T07:43:48.789Z,-1.46
2023-01-29T07:46:17.121Z,-1.44
2023-01-29T07:48:45.531Z,-1.43
2023-01-29T07:51:13.982Z,-1.43
2023-01-29T07:53:44.449Z,-1.41
2023-01-29T07:56:18.011Z,-1.38
2023-01-29T07:58:46.536Z,-1.35
2023-01-29T08:01:14.961Z,-1.32
2023-01-29T08:03:43.251Z,-1.29
2023-01-29T08:06:11.497Z,-1.26
2023-01-29T08:08:39.849Z,-1.23
2023-01-29T08:11:08.740Z,-1.21
2023-01-29T08:13:37.197Z,-1.18
2023-01-29T08:16:06.172Z,-1.14
2023-01-29T08:18:38.006Z,-1.11
2023-01-29T08:21:06.300Z,-1.08
2023-01-29T08:23:34.623Z,-1.06
2023-01-29T08:26:03.918Z,-1.04
2023-01-29T08:28:32.504Z,-1.02
2023-01-29T08:31:02.052Z,-0.99
2023-01-29T08:33:39.367Z,-0.95
2023-01-29T08:36:08.890Z,-0.91
2023-01-29T08:38:37.375Z,-0.86
2023-01-29T08:41:06.432Z,-0.80
2023-01-29T08:43:37.237Z,-0.76
2023-01-29T08:46:07.082Z,-0.71
2023-01-29T08:48:36.353Z,-0.66
2023-01-29T08:51:05.366Z,-0.63
2023-01-29T08:53:33.714Z,-0.62
2023-01-29T08:56:01.974Z,-0.62
2023-01-29T08:58:30.450Z,-0.63
2023-01-29T09:01:16.284Z,-0.62
2023-01-29T09:03:44.790Z,-0.59
2023-01-29T09:06:14.902Z,-0.57
2023-01-29T09:08:43.252Z,-0.53
2023-01-29T09:11:11.740Z,-0.50
2023-01-29T09:13:40.769Z,-0.46
2023-01-29T09:16:09.824Z,-0.42
2023-01-29T09:18:38.037Z,-0.39
2023-01-29T09:21:06.403Z,-0.35
2023-01-29T09:23:34.965Z,-0.33
2023-01-29T09:26:03.366Z,-0.34
2023-01-29T09:28:31.686Z,-0.35
2023-01-29T09:31:03.462Z,-0.36
2023-01-29T09:33:32.581Z,-0.35
2023-01-29T09:36:04.944Z,-0.35
2023-01-29T09:38:35.666Z,-0.35
2023-01-29T09:41:29.413Z,-0.34
2023-01-29T09:44:03.704Z,-0.31
2023-01-29T09:46:39.818Z,-0.28
2023-01-29T09:49:12.852Z,-0.24
2023-01-29T09:51:46.302Z,-0.22
2023-01-29T09:54:29.684Z,-0.21
2023-01-29T09:56:58.325Z,-0.18
2023-01-29T09:59:32.832Z,-0.13
2023-01-29T10:02:36.882Z,-0.07
2023-01-29T10:05:08.082Z,-0.02
2023-01-29T10:07:48.616Z,0.05
2023-01-29T10:10:29.892Z,0.13
2023-01-29T10:13:28.614Z,0.17
2023-01-29T10:16:22.070Z,0.23
2023-01-29T10:19:33.941Z,0.27
2023-01-29T10:22:14.187Z,0.35
2023-01-29T10:24:54.254Z,0.38
2023-01-29T10:27:23.603Z,0.41
2023-01-29T10:29:54.605Z,0.42
2023-01-29T10:32:27.101Z,0.42
2023-01-29T10:35:03.628Z,0.40
2023-01-29T10:37:42.797Z,0.39
2023-01-29T10:40:23.847Z,0.38
2023-01-29T10:42:58.190Z,0.37
2023-01-29T10:45:31.462Z,0.36
2023-01-29T10:48:47.194Z,0.34
2023-01-29T10:51:33.398Z,0.31
2023-01-29T10:54:34.074Z,0.30
2023-01-29T10:57:27.192Z,0.28
2023-01-29T10:59:55.436Z,0.26
2023-01-29T11:02:23.731Z,0.21
2023-01-29T11:04:52.215Z,0.13
2023-01-29T11:07:26.697Z,0.06
2023-01-29T11:10:02.846Z,0.04
2023-01-29T11:12:33.560Z,0.04
2023-01-29T11:15:23.046Z,0.05
2023-01-29T11:18:10.786Z,0.05
2023-01-29T11:20:39.817Z,0.04
2023-01-29T11:23:27.899Z,0.03
2023-01-29T11:26:09.652Z,0.02
2023-01-29T11:28:44.606Z,0.02
2023-01-29T11:31:50.592Z,0.04
2023-01-29T11:34:23.941Z,0.06
2023-01-29T11:37:15.793Z,0.08
2023-01-29T11:39:50.970Z,0.11
2023-01-29T11:42:21.738Z,0.09
2023-01-29T11:44:50.108Z,0.09
2023-01-29T11:47:24.138Z,0.09
2023-01-29T11:50:02.926Z,0.09
2023-01-29T11:52:41.048Z,0.11
2023-01-29T11:55:23.641Z,0.13
2023-01-29T11:58:17.590Z,0.10
2023-01-29T12:00:55.819Z,0.10
2023-01-29T12:03:44.057Z,0.11
2023-01-29T12:06:23.107Z,0.11
2023-01-29T12:09:01.548Z,0.11
2023-01-29T12:11:32.196Z,0.12
2023-01-29T12:14:03.622Z,0.13
2023-01-29T12:16:38.045Z,0.16
2023-01-29T12:19:28.794Z,0.15
2023-01-29T12:22:38.928Z,0.11
2023-01-29T12:25:23.183Z,0.08
2023-01-29T12:28:24.172Z,0.08
2023-01-29T12:31:13.958Z,0.09
2023-01-29T12:33:51.767Z,0.09
2023-01-29T12:36:20.187Z,0.08
2023-01-29T12:38:48.575Z,0.05
2023-01-29T12:41:35.235Z,0.06
2023-01-29T12:44:12.540Z,0.05
2023-01-29T12:46:50.777Z,0.02
2023-01-29T12:49:25.134Z,-0.01
2023-01-29T12:52:02.736Z,-0.04
2023-01-29T12:55:00.927Z,-0.11
2023-01-29T12:57:55.561Z,-0.18
2023-01-29T13:00:36.580Z,-0.23
2023-01-29T13:03:15.026Z,-0.27
2023-01-29T13:05:55.615Z,-0.31
2023-01-29T13:08:34.924Z,-0.33
2023-01-29T13:11:13.428Z,-0.37
2023-01-29T13:13:54.435Z,-0.38
2023-01-29T13:16:28.182Z,-0.38
2023-01-29T13:19:00.157Z,-0.38
2023-01-29T13:21:39.628Z,-0.39
2023-01-29T13:24:21.700Z,-0.40
2023-01-29T13:26:53.932Z,-0.40
2023-01-29T13:29:28.380Z,-0.43
2023-01-29T13:32:00.163Z,-0.48
2023-01-29T13:34:49.205Z,-0.51
2023-01-29T13:37:32.247Z,-0.52
2023-01-29T13:40:01.462Z,-0.53
2023-01-29T13:42:46.428Z,-0.53
2023-01-29T13:45:20.471Z,-0.54
2023-01-29T13:47:50.841Z,-0.54
2023-01-29T13:50:35.727Z,-0.53
2023-01-29T13:53:06.071Z,-0.53
2023-01-29T13:55:34.297Z,-0.52
2023-01-29T13:58:04.523Z,-0.52
2023-01-29T14:00:35.586Z,-0.50
2023-01-29T14:03:04.853Z,-0.51
2023-01-29T14:06:04.783Z,-0.48
2023-01-29T14:08:38.785Z,-0.49
2023-01-29T14:11:20.491Z,-0.49
2023-01-29T14:13:50.084Z,-0.50
2023-01-29T14:16:18.217Z,-0.50
2023-01-29T14:18:49.253Z,-0.50
2023-01-29T14:21:29.723Z,-0.50
2023-01-29T14:24:21.519Z,-0.51
2023-01-29T14:26:55.739Z,-0.51
2023-01-29T14:29:38.218Z,-0.51
2023-01-29T14:32:06.486Z,-0.53
2023-01-29T14:35:20.951Z,-0.54
2023-01-29T14:37:56.557Z,-0.55
2023-01-29T14:40:28.153Z,-0.57
2023-01-29T14:42:56.365Z,-0.58
2023-01-29T14:45:39.926Z,-0.60
2023-01-29T14:48:11.269Z,-0.62
2023-01-29T14:50:43.670Z,-0.64
2023-01-29T14:53:21.165Z,-0.66
2023-01-29T14:56:11.413Z,-0.68
2023-01-29T14:58:56.081Z,-0.69
2023-01-29T15:01:37.755Z,-0.71
2023-01-29T15:04:32.477Z,-0.73
2023-01-29T15:07:10.197Z,-0.75
2023-01-29T15:10:20.994Z,-0.78
2023-01-29T15:12:56.480Z,-0.80
2023-01-29T15:15:57.532Z,-0.82
2023-01-29T15:18:40.130Z,-0.84
2023-01-29T15:21:12.150Z,-0.86
2023-01-29T15:23:41.663Z,-0.88
2023-01-29T15:26:16.287Z,-0.90
2023-01-29T15:28:51.870Z,-0.92
2023-01-29T15:31:27.902Z,-0.94
2023-01-29T15:33:57.079Z,-0.95
2023-01-29T15:36:31.652Z,-0.97
2023-01-29T15:39:12.433Z,-0.99
2023-01-29T15:41:40.844Z,-1.02
2023-01-29T15:44:16.772Z,-1.04
2023-01-29T15:46:59.483Z,-1.06
2023-01-29T15:49:36.123Z,-1.08
2023-01-29T15:52:16.280Z,-1.10
2023-01-29T15:54:45.681Z,-1.11
2023-01-29T15:57:25.827Z,-1.11
2023-01-29T15:59:56.745Z,-1.10
2023-01-29T16:02:43.275Z,-1.10
2023-01-29T16:05:19.691Z,-1.11
2023-01-29T16:07:51.859Z,-1.12
2023-01-29T16:10:23.092Z,-1.13
2023-01-29T16:12:53.234Z,-1.14
2023-01-29T16:15:35.006Z,-1.16
2023-01-29T16:18:25.028Z,-1.17
2023-01-29T16:20:57.270Z,-1.19
2023-01-29T16:23:31.107Z,-1.22
2023-01-29T16:26:08.685Z,-1.25
2023-01-29T16:28:41.902Z,-1.25
2023-01-29T16:31:11.312Z,-1.25
2023-01-29T16:33:42.456Z,-1.25
2023-01-29T16:36:18.692Z,-1.25
2023-01-29T16:38:51.794Z,-1.25
2023-01-29T16:41:24.082Z,-1.26
2023-01-29T16:43:57.957Z,-1.27
2023-01-29T16:46:38.536Z,-1.29
2023-01-29T16:49:31.078Z,-1.30
2023-01-29T16:52:37.996Z,-1.32
2023-01-29T16:55:12.096Z,-1.34
2023-01-29T16:57:41.164Z,-1.37
2023-01-29T17:00:21.152Z,-1.38
2023-01-29T17:02:52.995Z,-1.38
2023-01-29T17:05:26.183Z,-1.43
2023-01-29T17:08:03.440Z,-1.43
2023-01-29T17:10:33.067Z,-1.43
2023-01-29T17:13:08.747Z,-1.44
2023-01-29T17:15:46.197Z,-1.44
2023-01-29T17:18:21.543Z,-1.45
2023-01-29T17:20:54.803Z,-1.46
2023-01-29T17:23:23.457Z,-1.46
2023-01-29T17:25:51.957Z,-1.47
2023-01-29T17:28:20.453Z,-1.46
2023-01-29T17:31:04.967Z,-1.46
2023-01-29T17:33:35.975Z,-1.46
2023-01-29T17:36:04.562Z,-1.45
2023-01-29T17:38:33.775Z,-1.46
2023-01-29T17:41:27.120Z,-1.47
2023-01-29T17:43:55.474Z,-1.47
2023-01-29T17:46:23.897Z,-1.48
2023-01-29T17:48:52.571Z,-1.49
2023-01-29T17:51:21.909Z,-1.49
2023-01-29T17:53:58.672Z,-1.49
2023-01-29T17:56:28.011Z,-1.48
2023-01-29T17:58:56.511Z,-1.50
2023-01-29T18:01:24.858Z,-1.49
2023-01-29T18:03:53.247Z,-1.46
2023-01-29T18:06:28.508Z,-1.46
2023-01-29T18:08:57.062Z,-1.47
2023-01-29T18:11:25.489Z,-1.45
2023-01-29T18:13:53.821Z,-1.44
2023-01-29T18:16:31.298Z,-1.43
2023-01-29T18:18:59.640Z,-1.43
2023-01-29T18:21:29.838Z,-1.42
2023-01-29T18:23:58.244Z,-1.41
2023-01-29T18:26:26.678Z,-1.41
2023-01-29T18:28:55.258Z,-1.40
2023-01-29T18:31:23.527Z,-1.39
2023-01-29T18:33:51.877Z,-1.39
2023-01-29T18:36:21.141Z,-1.40
2023-01-29T18:38:49.445Z,-1.38
2023-01-29T18:41:20.387Z,-1.36
2023-01-29T18:43:48.673Z,-1.35
2023-01-29T18:46:17.011Z,-1.35
2023-01-29T18:48:45.419Z,-1.33
2023-01-29T18:51:13.905Z,-1.34
2023-01-29T18:53:42.210Z,-1.33
2023-01-29T18:56:11.025Z,-1.32
2023-01-29T18:58:40.303Z,-1.30
2023-01-29T19:01:12.223Z,-1.31
2023-01-29T19:03:42.387Z,-1.30
2023-01-29T19:06:12.296Z,-1.30
2023-01-29T19:08:41.196Z,-1.31
2023-01-29T19:11:12.718Z,-1.30
2023-01-29T19:13:42.804Z,-1.30
2023-01-29T19:16:13.577Z,-1.31
2023-01-29T19:18:42.554Z,-1.33
2023-01-29T19:21:14.344Z,-1.33
2023-01-29T19:23:45.171Z,-1.32
2023-01-29T19:26:13.806Z,-1.31
2023-01-29T19:28:42.451Z,-1.30
2023-01-29T19:31:11.490Z,-1.29
2023-01-29T19:33:40.117Z,-1.27
2023-01-29T19:36:08.983Z,-1.26
2023-01-29T19:38:38.927Z,-1.24
2023-01-29T19:41:07.210Z,-1.21
2023-01-29T19:43:38.294Z,-1.20
2023-01-29T19:46:07.821Z,-1.18
2023-01-29T19:48:36.150Z,-1.18
2023-01-29T19:51:08.791Z,-1.18
2023-01-29T19:53:38.074Z,-1.17
2023-01-29T19:56:09.499Z,-1.19
2023-01-29T19:58:38.351Z,-1.21
2023-01-29T20:01:13.359Z,-1.22
2023-01-29T20:03:48.018Z,-1.23
2023-01-29T20:06:19.235Z,-1.26
2023-01-29T20:08:47.549Z,-1.27
2023-01-29T20:11:18.981Z,-1.28
2023-01-29T20:13:49.852Z,-1.29
2023-01-29T20:16:20.521Z,-1.30
2023-01-29T20:18:53.893Z,-1.31
2023-01-29T20:21:22.755Z,-1.38
2023-01-29T20:23:52.435Z,-1.46
2023-01-29T20:26:22.208Z,-1.54
2023-01-29T20:28:50.886Z,-1.63
2023-01-29T20:31:19.258Z,-1.71
2023-01-29T20:33:47.540Z,-1.77
2023-01-29T20:36:16.066Z,-1.83
2023-01-29T20:38:44.852Z,-1.89
2023-01-29T20:41:15.092Z,-1.94
2023-01-29T20:43:44.499Z,-1.99
2023-01-29T20:46:13.345Z,-2.03
2023-01-29T20:48:42.181Z,-2.06
2023-01-29T20:51:15.780Z,-2.09
2023-01-29T20:53:46.485Z,-2.09
2023-01-29T20:56:17.252Z,-2.12
2023-01-29T20:58:47.001Z,-2.15
2023-01-29T21:01:20.584Z,-2.17
2023-01-29T21:03:48.980Z,-2.19
2023-01-29T21:06:17.308Z,-2.20
2023-01-29T21:08:45.584Z,-2.22
2023-01-29T21:11:13.936Z,-2.23
2023-01-29T21:13:44.102Z,-2.25
2023-01-29T21:16:13.148Z,-2.27
2023-01-29T21:18:41.487Z,-2.29
2023-01-29T21:21:09.808Z,-2.30
2023-01-29T21:23:38.202Z,-2.31
2023-01-29T21:26:07.333Z,-2.32
2023-01-29T21:28:36.014Z,-2.35
2023-01-29T21:31:06.804Z,-2.37
2023-01-29T21:33:35.374Z,-2.39
2023-01-29T21:36:04.379Z,-2.41
2023-01-29T21:38:33.098Z,-2.44
2023-01-29T21:41:07.229Z,-2.47
2023-01-29T21:43:36.661Z,-2.49
2023-01-29T21:46:12.103Z,-2.50
2023-01-29T21:48:41.401Z,-2.51
2023-01-29T21:51:09.794Z,-2.51
2023-01-29T21:53:38.179Z,-2.53
2023-01-29T21:56:06.778Z,-2.53
2023-01-29T21:58:35.274Z,-2.53
2023-01-29T22:01:35.317Z,-2.54
2023-01-29T22:03:52.279Z,-2.56
2023-01-29T22:06:21.155Z,-2.57
2023-01-29T22:08:51.049Z,-2.57
2023-01-29T22:11:19.551Z,-2.56
2023-01-29T22:13:47.915Z,-2.56
2023-01-29T22:16:16.333Z,-2.56
2023-01-29T22:18:44.678Z,-2.56
2023-01-29T22:21:13.015Z,-2.55
2023-01-29T22:23:41.435Z,-2.55
2023-01-29T22:26:11.201Z,-2.54
2023-01-29T22:28:39.511Z,-2.55
2023-01-29T22:31:07.749Z,-2.55
2023-01-29T22:33:36.342Z,-2.54
2023-01-29T22:36:05.095Z,-2.55
2023-01-29T22:38:33.377Z,-2.55
2023-01-29T22:41:01.875Z,-2.54
2023-01-29T22:43:30.637Z,-2.54
2023-01-29T22:45:58.891Z,-2.53
2023-01-29T22:48:28.815Z,-2.53
2023-01-29T22:51:10.877Z,-2.53
2023-01-29T22:53:54.090Z,-2.53
2023-01-29T22:56:25.787Z,-2.53
2023-01-29T22:58:56.548Z,-2.53
2023-01-29T23:01:28.087Z,-2.54
2023-01-29T23:03:56.940Z,-2.54
2023-01-29T23:06:25.358Z,-2.53
2023-01-29T23:08:53.785Z,-2.53
2023-01-29T23:11:23.647Z,-2.53
2023-01-29T23:13:55.768Z,-2.54
2023-01-29T23:16:27.679Z,-2.54
2023-01-29T23:18:56.577Z,-2.53
2023-01-29T23:21:25.679Z,-2.53
2023-01-29T23:23:55.525Z,-2.53
2023-01-29T23:26:42.728Z,-2.52
2023-01-29T23:29:11.179Z,-2.52
2023-01-29T23:31:40.082Z,-2.51
2023-01-29T23:34:08.590Z,-2.50
2023-01-29T23:36:37.454Z,-2.49
2023-01-29T23:39:06.349Z,-2.48
2023-01-29T23:41:34.885Z,-2.48
2023-01-29T23:44:03.445Z,-2.47
2023-01-29T23:46:32.673Z,-2.46
2023-01-29T23:49:01.203Z,-2.45
2023-01-29T23:51:29.753Z,-2.45
2023-01-29T23:53:57.983Z,-2.44
2023-01-29T23:56:26.433Z,-2.45
2023-01-29T23:58:56.222Z,-2.44
